Time;durP1;ratioP1;P1;durP2;ratioP2;P2;SDS_P1;SDS_P2;PMS_P1;PMS_P2;Temp;Humidity;BMP_temperature;BMP_pressure;BME280_temperature;BME280_humidity;BME280_pressure;Samples;Min_cycle;Max_cycle;Signal;HPM_P1;HPM_P2
2022/11/13 00:01:10;;;;;;;27.30;24.60;;;;;;;;;;5031040;28;20585;-54
2022/11/13 00:03:35;;;;;;;25.47;22.87;;;;;;;;;;5030055;28;20587;-55
2022/11/13 00:06:01;;;;;;;25.70;23.17;;;;;;;;;;5030171;28;20701;-55
2022/11/13 00:08:26;;;;;;;25.97;23.33;;;;;;;;;;5046788;28;20651;-55
2022/11/13 00:10:58;;;;;;;25.60;22.93;;;;;;;;;;5053543;28;20209;-55
2022/11/13 00:13:23;;;;;;;26.77;23.97;;;;;;;;;;5048580;28;20206;-55
2022/11/13 00:15:59;;;;;;;26.40;23.73;;;;;;;;;;5052909;28;20737;-55
2022/11/13 00:18:24;;;;;;;24.27;22.07;;;;;;;;;;5033774;28;20218;-55
2022/11/13 00:20:49;;;;;;;24.00;21.50;;;;;;;;;;5039591;28;20589;-55
2022/11/13 00:23:14;;;;;;;27.17;24.47;;;;;;;;;;5053832;28;20183;-55
2022/11/13 00:25:40;;;;;;;26.30;22.83;;;;;;;;;;5052703;28;20226;-55
2022/11/13 00:28:05;;;;;;;25.83;23.23;;;;;;;;;;5048144;28;20187;-56
2022/11/13 00:30:30;;;;;;;25.20;22.65;;;;;;;;;;5053485;28;20689;-56
2022/11/13 00:32:55;;;;;;;25.50;22.90;;;;;;;;;;5052553;28;20181;-56
2022/11/13 00:35:20;;;;;;;24.13;21.83;;;;;;;;;;5033840;28;20177;-56
2022/11/13 00:37:45;;;;;;;24.27;21.97;;;;;;;;;;5034702;28;20208;-55
2022/11/13 00:40:11;;;;;;;24.40;21.90;;;;;;;;;;5033779;28;20764;-55
2022/11/13 00:42:36;;;;;;;25.50;23.00;;;;;;;;;;5047800;28;20184;-56
2022/11/13 00:45:01;;;;;;;24.10;21.77;;;;;;;;;;5061416;28;20176;-55
2022/11/13 00:47:26;;;;;;;23.20;20.90;;;;;;;;;;5051409;28;20180;-55
2022/11/13 00:49:51;;;;;;;23.20;21.00;;;;;;;;;;5052554;28;20176;-56
2022/11/13 00:52:16;;;;;;;23.15;20.65;;;;;;;;;;5053138;28;20201;-56
2022/11/13 00:54:42;;;;;;;23.43;20.93;;;;;;;;;;5053588;28;20627;-55
2022/11/13 00:57:07;;;;;;;23.70;21.30;;;;;;;;;;5040688;28;20179;-56
2022/11/13 00:59:32;;;;;;;23.80;21.30;;;;;;;;;;5043215;28;20172;-54
2022/11/13 01:01:57;;;;;;;22.43;19.90;;;;;;;;;;5053104;28;20332;-55
2022/11/13 01:04:22;;;;;;;23.08;20.75;;;;;;;;;;5035688;28;20183;-55
2022/11/13 01:06:47;;;;;;;21.20;19.20;;;;;;;;;;5029327;28;20615;-55
2022/11/13 01:09:12;;;;;;;23.92;21.52;;;;;;;;;;5040344;28;20179;-56
2022/11/13 01:11:38;;;;;;;21.13;19.10;;;;;;;;;;5053013;28;20256;-55
2022/11/13 01:14:03;;;;;;;23.25;20.90;;;;;;;;;;5052109;28;20171;-55
2022/11/13 01:16:28;;;;;;;19.87;17.97;;;;;;;;;;5034625;28;20180;-55
2022/11/13 01:18:54;;;;;;;21.23;19.00;;;;;;;;;;5039857;28;20272;-55
2022/11/13 01:21:24;;;;;;;20.53;18.43;;;;;;;;;;5052714;28;20195;-56
2022/11/13 01:23:49;;;;;;;20.80;18.70;;;;;;;;;;5052251;28;20571;-55
2022/11/13 01:26:19;;;;;;;21.20;19.00;;;;;;;;;;5036004;28;20987;-55
2022/11/13 01:28:44;;;;;;;19.37;17.53;;;;;;;;;;5052479;28;20171;-56
2022/11/13 01:31:15;;;;;;;21.00;19.00;;;;;;;;;;5052596;28;21291;-54
2022/11/13 01:33:40;;;;;;;20.40;18.30;;;;;;;;;;5051743;28;20188;-56
2022/11/13 01:36:07;;;;;;;19.63;17.73;;;;;;;;;;5040478;28;20623;-56
2022/11/13 01:38:33;;;;;;;19.67;17.70;;;;;;;;;;5052418;28;20574;-56
2022/11/13 01:40:58;;;;;;;19.60;17.70;;;;;;;;;;5051658;28;20720;-54
2022/11/13 01:43:28;;;;;;;18.53;16.73;;;;;;;;;;5051837;28;20228;-54
2022/11/13 01:45:56;;;;;;;18.67;16.77;;;;;;;;;;5048813;28;20180;-54
2022/11/13 01:48:21;;;;;;;18.87;17.07;;;;;;;;;;5032951;28;20670;-54
2022/11/13 01:50:47;;;;;;;17.50;15.80;;;;;;;;;;5046197;28;21246;-54
2022/11/13 01:53:12;;;;;;;18.20;16.40;;;;;;;;;;5039084;28;20235;-54
2022/11/13 01:55:37;;;;;;;18.20;16.37;;;;;;;;;;5045751;28;20201;-55
2022/11/13 01:58:03;;;;;;;18.50;16.70;;;;;;;;;;5033668;28;20216;-54
2022/11/13 02:00:28;;;;;;;18.63;16.67;;;;;;;;;;5039263;28;20262;-56
2022/11/13 02:02:54;;;;;;;18.93;17.17;;;;;;;;;;5052086;28;20701;-55
2022/11/13 02:05:19;;;;;;;18.30;16.60;;;;;;;;;;5040983;28;20190;-55
2022/11/13 02:07:44;;;;;;;18.13;16.43;;;;;;;;;;5048118;28;20845;-56
2022/11/13 02:10:09;;;;;;;17.63;15.93;;;;;;;;;;5037899;28;20186;-54
2022/11/13 02:12:35;;;;;;;17.10;15.45;;;;;;;;;;5050226;28;20204;-55
2022/11/13 02:15:02;;;;;;;18.63;16.83;;;;;;;;;;5047980;28;20191;-56
2022/11/13 02:17:54;;;;;;;18.33;16.57;;;;;;;;;;5038808;28;21618;-54
2022/11/13 02:20:24;;;;;;;19.10;17.20;;;;;;;;;;5034867;28;20995;-55
2022/11/13 02:22:54;;;;;;;17.63;15.83;;;;;;;;;;5050690;28;20614;-54
2022/11/13 02:25:19;;;;;;;19.40;17.60;;;;;;;;;;5047858;28;20665;-54
2022/11/13 02:27:45;;;;;;;19.93;18.03;;;;;;;;;;5038686;28;20690;-57
2022/11/13 02:30:10;;;;;;;19.20;17.40;;;;;;;;;;5032174;28;20179;-54
2022/11/13 02:32:40;;;;;;;19.90;17.87;;;;;;;;;;5036318;28;20668;-55
2022/11/13 02:35:06;;;;;;;18.33;16.63;;;;;;;;;;5044116;28;20203;-55
2022/11/13 02:37:31;;;;;;;18.27;16.57;;;;;;;;;;5036199;28;21153;-55
2022/11/13 02:39:56;;;;;;;18.73;16.83;;;;;;;;;;5034829;28;20610;-55
2022/11/13 02:42:21;;;;;;;18.90;17.10;;;;;;;;;;5048432;28;20179;-55
2022/11/13 02:44:46;;;;;;;17.07;15.43;;;;;;;;;;5043735;28;20200;-55
2022/11/13 02:47:11;;;;;;;17.33;15.70;;;;;;;;;;5031039;28;20267;-59
2022/11/13 02:49:37;;;;;;;17.67;15.87;;;;;;;;;;5034670;28;20180;-54
2022/11/13 02:52:02;;;;;;;17.13;15.43;;;;;;;;;;5048663;28;20199;-55
2022/11/13 02:54:27;;;;;;;18.43;16.63;;;;;;;;;;5033201;28;20224;-55
2022/11/13 02:56:52;;;;;;;16.53;14.83;;;;;;;;;;5035492;28;20192;-54
2022/11/13 02:59:17;;;;;;;17.83;16.10;;;;;;;;;;5031328;28;20685;-55
2022/11/13 03:01:43;;;;;;;17.97;16.30;;;;;;;;;;5032942;28;20181;-55
2022/11/13 03:04:08;;;;;;;16.40;14.90;;;;;;;;;;5030564;28;20241;-54
2022/11/13 03:06:33;;;;;;;17.87;16.07;;;;;;;;;;5039107;28;20175;-55
2022/11/13 03:08:58;;;;;;;17.00;15.40;;;;;;;;;;5045367;28;20259;-55
2022/11/13 03:11:23;;;;;;;16.93;15.33;;;;;;;;;;5032825;28;20179;-55
2022/11/13 03:13:48;;;;;;;16.90;15.30;;;;;;;;;;5030773;28;20634;-55
2022/11/13 03:16:14;;;;;;;16.43;14.83;;;;;;;;;;5046027;28;20182;-55
2022/11/13 03:18:40;;;;;;;15.93;14.47;;;;;;;;;;5033524;28;20670;-55
2022/11/13 03:21:06;;;;;;;17.00;15.40;;;;;;;;;;5035444;28;20607;-55
2022/11/13 03:23:31;;;;;;;17.00;15.40;;;;;;;;;;5045338;28;20179;-55
2022/11/13 03:26:01;;;;;;;17.50;15.80;;;;;;;;;;5046406;28;20612;-56
2022/11/13 03:28:26;;;;;;;18.30;16.70;;;;;;;;;;5047365;28;20594;-54
2022/11/13 03:30:51;;;;;;;17.80;16.17;;;;;;;;;;5041328;28;20609;-54
2022/11/13 03:33:16;;;;;;;17.50;15.80;;;;;;;;;;5036622;28;20273;-55
2022/11/13 03:35:41;;;;;;;17.87;16.23;;;;;;;;;;5047377;28;20967;-56
2022/11/13 03:38:06;;;;;;;16.97;15.43;;;;;;;;;;5045997;28;20214;-55
2022/11/13 03:40:32;;;;;;;16.63;15.13;;;;;;;;;;5041797;28;20186;-55
2022/11/13 03:42:57;;;;;;;19.27;16.10;;;;;;;;;;5032206;28;20535;-56
2022/11/13 03:45:22;;;;;;;16.87;15.27;;;;;;;;;;5046024;28;20187;-56
2022/11/13 03:47:47;;;;;;;16.93;15.30;;;;;;;;;;5049773;28;20183;-55
2022/11/13 03:50:12;;;;;;;15.80;14.40;;;;;;;;;;5036173;28;20190;-55
2022/11/13 03:52:38;;;;;;;16.57;14.97;;;;;;;;;;5029747;28;20291;-55
2022/11/13 03:55:03;;;;;;;16.93;15.23;;;;;;;;;;5030376;28;20191;-55
2022/11/13 03:57:28;;;;;;;17.47;15.77;;;;;;;;;;5030636;28;20211;-55
2022/11/13 03:59:53;;;;;;;16.47;14.80;;;;;;;;;;5043937;28;20199;-55
2022/11/13 04:02:18;;;;;;;16.30;14.63;;;;;;;;;;5048177;28;20232;-55
2022/11/13 04:04:44;;;;;;;15.55;14.18;;;;;;;;;;5038607;28;20180;-55
2022/11/13 04:07:09;;;;;;;20.63;15.20;;;;;;;;;;5034447;28;20564;-55
2022/11/13 04:09:34;;;;;;;16.47;14.90;;;;;;;;;;5034427;28;20179;-55
2022/11/13 04:11:59;;;;;;;16.40;14.77;;;;;;;;;;5049263;28;20551;-55
2022/11/13 04:14:24;;;;;;;17.03;15.07;;;;;;;;;;5038245;28;20197;-55
2022/11/13 04:16:49;;;;;;;17.03;15.33;;;;;;;;;;5047345;28;20599;-55
2022/11/13 04:19:15;;;;;;;16.90;15.20;;;;;;;;;;5050167;28;20628;-55
2022/11/13 04:21:40;;;;;;;16.20;14.60;;;;;;;;;;5049724;28;20686;-54
2022/11/13 04:24:05;;;;;;;16.20;14.60;;;;;;;;;;5036333;28;20187;-54
2022/11/13 04:26:30;;;;;;;16.40;14.83;;;;;;;;;;5030660;28;20262;-55
2022/11/13 04:28:55;;;;;;;16.23;14.70;;;;;;;;;;5029766;28;20513;-55
2022/11/13 04:31:21;;;;;;;15.47;14.03;;;;;;;;;;5030794;28;20179;-56
2022/11/13 04:33:46;;;;;;;15.33;13.93;;;;;;;;;;5030005;28;20519;-55
2022/11/13 04:36:11;;;;;;;15.18;13.52;;;;;;;;;;5031930;28;20210;-54
2022/11/13 04:38:36;;;;;;;15.60;14.30;;;;;;;;;;5029643;28;20229;-54
2022/11/13 04:43:45;;;;;;;16.80;15.03;;;;;;;;;;5029556;28;20270;-54
2022/11/13 04:46:10;;;;;;;16.15;14.57;;;;;;;;;;5029519;28;21155;-54
2022/11/13 04:48:36;;;;;;;15.23;13.63;;;;;;;;;;5038516;28;20183;-54
2022/11/13 04:51:01;;;;;;;15.80;14.30;;;;;;;;;;5049712;28;20168;-55
2022/11/13 04:53:26;;;;;;;16.83;15.03;;;;;;;;;;5049374;28;20293;-55
2022/11/13 04:55:52;;;;;;;15.80;14.40;;;;;;;;;;5051009;28;20169;-54
2022/11/13 04:58:17;;;;;;;14.17;12.87;;;;;;;;;;5038979;28;20212;-55
2022/11/13 05:00:42;;;;;;;15.80;14.40;;;;;;;;;;5033046;28;20254;-54
2022/11/13 05:03:07;;;;;;;13.37;12.07;;;;;;;;;;5034572;28;20175;-54
2022/11/13 05:05:32;;;;;;;15.10;13.70;;;;;;;;;;5052068;28;20182;-55
2022/11/13 05:07:57;;;;;;;14.40;13.00;;;;;;;;;;5052961;28;20192;-55
2022/11/13 05:10:22;;;;;;;14.73;13.33;;;;;;;;;;5051134;28;20658;-54
2022/11/13 05:12:48;;;;;;;14.60;13.20;;;;;;;;;;5052586;28;20202;-55
2022/11/13 05:15:13;;;;;;;13.57;12.17;;;;;;;;;;5034334;28;20186;-55
2022/11/13 05:17:38;;;;;;;13.70;12.40;;;;;;;;;;5048796;28;20220;-54
2022/11/13 05:20:03;;;;;;;13.93;12.53;;;;;;;;;;5046730;28;20536;-55
2022/11/13 05:22:29;;;;;;;14.43;13.20;;;;;;;;;;5047969;28;20196;-54
2022/11/13 05:24:54;;;;;;;15.43;13.93;;;;;;;;;;5049192;28;20186;-54
2022/11/13 05:27:19;;;;;;;13.87;12.47;;;;;;;;;;5051240;28;20216;-55
2022/11/13 05:29:44;;;;;;;15.00;13.57;;;;;;;;;;5039738;28;20625;-55
2022/11/13 05:32:09;;;;;;;13.63;12.30;;;;;;;;;;5038607;28;20183;-55
2022/11/13 05:34:34;;;;;;;14.77;13.37;;;;;;;;;;5043263;28;20174;-56
2022/11/13 05:37:00;;;;;;;13.20;12.00;;;;;;;;;;5052254;28;20236;-55
2022/11/13 05:39:25;;;;;;;14.33;12.40;;;;;;;;;;5051797;28;20705;-55
2022/11/13 05:41:50;;;;;;;13.93;12.63;;;;;;;;;;5035647;28;20186;-56
2022/11/13 05:44:15;;;;;;;12.77;11.53;;;;;;;;;;5039035;28;20264;-55
2022/11/13 05:46:40;;;;;;;15.30;13.70;;;;;;;;;;5041993;28;20183;-55
2022/11/13 05:49:05;;;;;;;13.17;11.97;;;;;;;;;;5048497;28;20210;-56
2022/11/13 05:51:31;;;;;;;13.00;11.70;;;;;;;;;;5037591;28;20248;-55
2022/11/13 05:53:57;;;;;;;14.60;13.20;;;;;;;;;;5046110;28;20227;-55
2022/11/13 05:56:27;;;;;;;13.77;12.37;;;;;;;;;;5036701;28;20691;-56
2022/11/13 05:58:53;;;;;;;14.03;12.60;;;;;;;;;;5040153;28;20702;-54
2022/11/13 06:01:19;;;;;;;14.30;12.97;;;;;;;;;;5040848;28;20617;-56
2022/11/13 06:03:45;;;;;;;14.63;13.10;;;;;;;;;;5031576;28;20591;-55
2022/11/13 06:06:12;;;;;;;14.00;12.63;;;;;;;;;;5045746;28;20587;-55
2022/11/13 06:08:37;;;;;;;13.80;12.50;;;;;;;;;;5049962;28;20266;-55
2022/11/13 06:11:04;;;;;;;14.80;13.40;;;;;;;;;;5046292;28;20634;-56
2022/11/13 06:13:29;;;;;;;15.40;13.80;;;;;;;;;;5045853;28;20277;-55
2022/11/13 06:15:58;;;;;;;14.33;12.90;;;;;;;;;;5040792;28;20988;-55
2022/11/13 06:18:24;;;;;;;14.20;12.70;;;;;;;;;;5037495;28;20672;-55
2022/11/13 06:20:49;;;;;;;15.57;14.07;;;;;;;;;;5058158;28;20602;-54
2022/11/13 06:23:14;;;;;;;15.00;13.50;;;;;;;;;;5042959;28;20183;-55
2022/11/13 06:25:39;;;;;;;13.67;12.33;;;;;;;;;;5034483;28;20245;-55
2022/11/13 06:28:04;;;;;;;15.10;13.50;;;;;;;;;;5032154;28;20263;-56
2022/11/13 06:30:30;;;;;;;14.60;13.00;;;;;;;;;;5037514;28;20186;-55
2022/11/13 06:32:55;;;;;;;14.70;13.23;;;;;;;;;;5038619;28;20645;-55
2022/11/13 06:35:20;;;;;;;13.87;12.57;;;;;;;;;;5042768;28;20171;-55
2022/11/13 06:37:45;;;;;;;15.53;14.00;;;;;;;;;;5038063;28;20323;-55
2022/11/13 06:40:11;;;;;;;15.00;13.60;;;;;;;;;;5039871;28;20592;-55
2022/11/13 06:42:36;;;;;;;13.67;12.37;;;;;;;;;;5041044;28;20240;-55
2022/11/13 06:45:01;;;;;;;15.97;13.40;;;;;;;;;;5043608;28;20182;-55
2022/11/13 06:47:27;;;;;;;14.47;13.07;;;;;;;;;;5039200;28;20176;-55
2022/11/13 06:49:52;;;;;;;15.17;13.57;;;;;;;;;;5031676;28;20192;-55
2022/11/13 06:52:17;;;;;;;15.33;13.13;;;;;;;;;;5031888;28;20234;-54
2022/11/13 06:54:42;;;;;;;14.10;12.80;;;;;;;;;;5046901;28;20200;-56
2022/11/13 06:57:07;;;;;;;14.83;13.37;;;;;;;;;;5052557;28;20183;-56
2022/11/13 06:59:33;;;;;;;13.85;12.45;;;;;;;;;;5038191;28;20215;-56
2022/11/13 07:01:58;;;;;;;15.00;13.40;;;;;;;;;;5036676;28;20655;-56
2022/11/13 07:04:23;;;;;;;15.07;13.63;;;;;;;;;;5049009;28;20193;-56
2022/11/13 07:06:48;;;;;;;15.83;14.17;;;;;;;;;;5048526;28;20253;-56
2022/11/13 07:09:13;;;;;;;14.80;13.35;;;;;;;;;;5040082;28;20205;-57
2022/11/13 07:11:38;;;;;;;16.38;14.70;;;;;;;;;;5043240;28;20681;-56
2022/11/13 07:14:03;;;;;;;15.73;14.13;;;;;;;;;;5047903;28;20256;-56
2022/11/13 07:16:29;;;;;;;14.97;13.57;;;;;;;;;;5042709;28;20181;-56
2022/11/13 07:18:54;;;;;;;13.80;12.50;;;;;;;;;;5040687;28;20214;-54
2022/11/13 07:21:20;;;;;;;14.43;13.02;;;;;;;;;;5049907;28;20191;-55
2022/11/13 07:23:46;;;;;;;13.50;12.20;;;;;;;;;;5046434;28;20598;-54
2022/11/13 07:26:12;;;;;;;14.20;12.73;;;;;;;;;;5047672;28;20653;-55
2022/11/13 07:28:37;;;;;;;15.50;14.00;;;;;;;;;;5033012;28;20646;-55
2022/11/13 07:31:02;;;;;;;14.67;13.37;;;;;;;;;;5040961;28;20673;-56
2022/11/13 07:33:27;;;;;;;15.57;13.97;;;;;;;;;;5046717;28;20190;-54
2022/11/13 07:35:54;;;;;;;15.17;13.67;;;;;;;;;;5042348;28;20179;-54
2022/11/13 07:38:19;;;;;;;17.70;14.10;;;;;;;;;;5038717;28;20353;-55
2022/11/13 07:40:44;;;;;;;15.23;13.83;;;;;;;;;;5042185;28;21219;-55
2022/11/13 07:43:09;;;;;;;14.03;12.60;;;;;;;;;;5034942;28;20187;-55
2022/11/13 07:45:37;;;;;;;16.67;15.07;;;;;;;;;;5033824;28;20718;-55
2022/11/13 07:48:03;;;;;;;12.03;10.87;;;;;;;;;;5033517;28;20242;-56
2022/11/13 07:50:30;;;;;;;14.37;13.00;;;;;;;;;;5045588;28;21143;-56
2022/11/13 07:52:56;;;;;;;14.97;13.50;;;;;;;;;;5048589;28;20234;-56
2022/11/13 07:55:21;;;;;;;16.40;14.90;;;;;;;;;;5047832;28;20613;-56
2022/11/13 07:57:46;;;;;;;15.73;14.13;;;;;;;;;;5040189;28;20643;-56
2022/11/13 08:00:11;;;;;;;16.07;14.57;;;;;;;;;;5048082;28;20567;-57
2022/11/13 08:02:37;;;;;;;14.90;13.50;;;;;;;;;;5049947;28;20168;-55
2022/11/13 08:05:02;;;;;;;15.10;13.70;;;;;;;;;;5039772;28;20187;-56
2022/11/13 08:07:27;;;;;;;16.73;15.03;;;;;;;;;;5047781;28;20179;-56
2022/11/13 08:09:52;;;;;;;15.00;13.70;;;;;;;;;;5069957;28;20249;-56
2022/11/13 08:12:17;;;;;;;15.93;14.40;;;;;;;;;;5059525;28;20266;-56
2022/11/13 08:14:42;;;;;;;15.80;14.30;;;;;;;;;;5032884;28;20172;-56
2022/11/13 08:17:08;;;;;;;15.13;13.83;;;;;;;;;;5047636;28;20188;-56
2022/11/13 08:19:33;;;;;;;13.03;11.80;;;;;;;;;;5038333;28;20288;-54
2022/11/13 08:21:58;;;;;;;14.07;12.88;;;;;;;;;;5039514;28;20670;-55
2022/11/13 08:24:23;;;;;;;15.13;13.63;;;;;;;;;;5039110;28;20176;-55
2022/11/13 08:26:48;;;;;;;14.40;13.10;;;;;;;;;;5037156;28;20646;-54
2022/11/13 08:29:13;;;;;;;13.63;12.23;;;;;;;;;;5034699;28;20204;-54
2022/11/13 08:31:39;;;;;;;13.90;12.53;;;;;;;;;;5034863;28;20184;-54
2022/11/13 08:34:04;;;;;;;13.97;12.80;;;;;;;;;;5038354;28;20202;-55
2022/11/13 08:36:29;;;;;;;14.80;13.40;;;;;;;;;;5040088;28;20184;-55
2022/11/13 08:38:54;;;;;;;14.32;13.23;;;;;;;;;;5041800;28;20316;-55
2022/11/13 08:41:19;;;;;;;14.10;12.80;;;;;;;;;;5036289;28;20180;-55
2022/11/13 08:43:44;;;;;;;14.67;13.43;;;;;;;;;;5032615;28;20587;-55
2022/11/13 08:46:09;;;;;;;13.43;12.23;;;;;;;;;;5034200;28;20188;-55
2022/11/13 08:48:36;;;;;;;13.07;11.97;;;;;;;;;;5034200;28;20663;-55
2022/11/13 08:51:01;;;;;;;12.73;11.63;;;;;;;;;;5033560;28;20173;-55
2022/11/13 08:53:26;;;;;;;13.87;12.67;;;;;;;;;;5033051;28;20674;-54
2022/11/13 08:55:51;;;;;;;14.18;12.93;;;;;;;;;;5033231;28;20166;-55
2022/11/13 08:58:17;;;;;;;13.87;12.77;;;;;;;;;;5033209;28;20676;-55
2022/11/13 09:00:42;;;;;;;14.30;13.00;;;;;;;;;;5032923;28;20256;-55
2022/11/13 09:03:09;;;;;;;14.73;13.53;;;;;;;;;;5032630;28;20256;-54
2022/11/13 09:05:35;;;;;;;13.70;12.70;;;;;;;;;;5032981;28;20164;-54
2022/11/13 09:08:00;;;;;;;14.27;13.07;;;;;;;;;;5032894;28;20975;-55
2022/11/13 09:10:26;;;;;;;15.07;13.90;;;;;;;;;;5031225;28;20178;-55
2022/11/13 09:12:55;;;;;;;16.83;15.33;;;;;;;;;;5032888;28;20239;-55
2022/11/13 09:15:20;;;;;;;16.00;14.67;;;;;;;;;;5035270;28;20171;-55
2022/11/13 09:17:45;;;;;;;15.30;13.90;;;;;;;;;;5050122;28;20757;-54
2022/11/13 09:20:11;;;;;;;15.77;14.37;;;;;;;;;;5031093;28;20185;-54
2022/11/13 09:22:36;;;;;;;15.83;14.50;;;;;;;;;;5031005;28;20615;-55
2022/11/13 09:25:01;;;;;;;16.17;14.85;;;;;;;;;;5032696;28;20230;-55
2022/11/13 09:27:26;;;;;;;16.13;14.73;;;;;;;;;;5034787;28;20257;-55
2022/11/13 09:29:51;;;;;;;16.17;14.87;;;;;;;;;;5052206;28;20536;-55
2022/11/13 09:32:16;;;;;;;16.33;15.03;;;;;;;;;;5052227;28;20176;-56
2022/11/13 09:34:42;;;;;;;17.60;16.10;;;;;;;;;;5052625;28;20601;-55
2022/11/13 09:37:07;;;;;;;16.23;14.93;;;;;;;;;;5052318;28;20250;-54
2022/11/13 09:39:32;;;;;;;16.60;15.20;;;;;;;;;;5035272;28;20210;-54
2022/11/13 09:42:01;;;;;;;16.70;15.30;;;;;;;;;;5032123;28;20246;-56
2022/11/13 09:44:30;;;;;;;15.10;13.80;;;;;;;;;;5032435;28;20572;-55
2022/11/13 09:47:10;;;;;;;16.80;15.40;;;;;;;;;;5031928;28;21130;-54
2022/11/13 09:49:38;;;;;;;15.33;14.13;;;;;;;;;;5033638;28;20670;-54
2022/11/13 09:52:09;;;;;;;16.07;14.87;;;;;;;;;;5032092;28;20586;-55
2022/11/13 09:54:34;;;;;;;15.27;14.07;;;;;;;;;;5032436;28;20608;-55
2022/11/13 09:57:02;;;;;;;16.10;14.70;;;;;;;;;;5031914;28;20580;-57
2022/11/13 09:59:30;;;;;;;16.00;14.70;;;;;;;;;;5031863;28;20212;-56
2022/11/13 10:02:01;;;;;;;15.93;14.70;;;;;;;;;;5037102;28;20652;-55
2022/11/13 10:04:36;;;;;;;14.80;13.50;;;;;;;;;;5051929;28;20607;-56
2022/11/13 10:07:12;;;;;;;15.23;13.93;;;;;;;;;;5045336;28;21435;-55
2022/11/13 10:09:56;;;;;;;15.10;13.90;;;;;;;;;;5031877;28;20568;-55
2022/11/13 10:12:21;;;;;;;15.87;14.47;;;;;;;;;;5031119;28;20662;-57
2022/11/13 10:14:50;;;;;;;14.93;13.73;;;;;;;;;;5040633;28;20676;-56
2022/11/13 10:17:25;;;;;;;15.57;14.17;;;;;;;;;;5031737;28;20214;-54
2022/11/13 10:20:06;;;;;;;16.47;15.07;;;;;;;;;;5031631;28;21201;-55
2022/11/13 10:22:47;;;;;;;15.97;14.77;;;;;;;;;;5032448;28;21207;-55
2022/11/13 10:25:18;;;;;;;14.57;13.37;;;;;;;;;;5031689;28;20585;-55
2022/11/13 10:27:56;;;;;;;15.53;14.03;;;;;;;;;;5031625;28;20592;-55
2022/11/13 10:30:22;;;;;;;15.43;14.13;;;;;;;;;;5031290;28;20585;-55
2022/11/13 10:32:47;;;;;;;13.52;12.43;;;;;;;;;;5031557;28;20625;-55
2022/11/13 10:35:30;;;;;;;14.63;13.43;;;;;;;;;;5045585;28;20177;-55
2022/11/13 10:38:04;;;;;;;14.77;13.47;;;;;;;;;;5051441;28;20189;-55
2022/11/13 10:40:32;;;;;;;13.80;12.70;;;;;;;;;;5051102;28;21004;-55
2022/11/13 10:43:04;;;;;;;13.70;12.60;;;;;;;;;;5042743;28;20614;-55
2022/11/13 10:45:29;;;;;;;15.97;14.77;;;;;;;;;;5031427;28;20645;-55
2022/11/13 10:47:54;;;;;;;15.10;13.90;;;;;;;;;;5031193;28;21003;-55
2022/11/13 10:50:21;;;;;;;14.50;13.20;;;;;;;;;;5030947;28;20839;-54
2022/11/13 10:52:47;;;;;;;15.57;14.17;;;;;;;;;;5030980;28;20230;-55
2022/11/13 10:55:33;;;;;;;16.07;14.83;;;;;;;;;;5030950;28;20555;-55
2022/11/13 10:57:59;;;;;;;17.13;15.73;;;;;;;;;;5030650;28;21263;-55
2022/11/13 11:00:25;;;;;;;16.80;15.50;;;;;;;;;;5030568;28;20585;-55
2022/11/13 11:02:50;;;;;;;15.37;14.17;;;;;;;;;;5031008;28;20617;-55
2022/11/13 11:05:18;;;;;;;16.35;14.93;;;;;;;;;;5031292;28;20239;-55
2022/11/13 11:07:43;;;;;;;15.90;14.60;;;;;;;;;;5034717;28;20600;-56
2022/11/13 11:10:17;;;;;;;16.23;14.93;;;;;;;;;;5030360;28;20593;-55
2022/11/13 11:12:49;;;;;;;18.70;17.20;;;;;;;;;;5033078;28;20189;-55
2022/11/13 11:15:23;;;;;;;16.97;15.63;;;;;;;;;;5050719;28;20591;-56
2022/11/13 11:17:55;;;;;;;17.60;16.10;;;;;;;;;;5048167;28;20646;-55
2022/11/13 11:20:24;;;;;;;17.00;15.70;;;;;;;;;;5050330;28;20570;-56
2022/11/13 11:22:56;;;;;;;18.53;17.07;;;;;;;;;;5050378;28;20614;-55
2022/11/13 11:25:42;;;;;;;19.37;17.80;;;;;;;;;;5050410;28;20625;-55
2022/11/13 11:28:14;;;;;;;18.07;16.57;;;;;;;;;;5046221;28;20602;-56
2022/11/13 11:30:51;;;;;;;17.47;16.17;;;;;;;;;;5050216;28;20573;-55
2022/11/13 11:33:35;;;;;;;18.40;17.00;;;;;;;;;;5050292;28;20574;-55
2022/11/13 11:36:12;;;;;;;18.90;17.20;;;;;;;;;;5050446;28;20584;-55
2022/11/13 11:38:49;;;;;;;17.90;16.40;;;;;;;;;;5042622;28;20654;-55
2022/11/13 11:41:17;;;;;;;18.47;16.87;;;;;;;;;;5042047;28;20624;-55
2022/11/13 11:43:44;;;;;;;18.50;17.00;;;;;;;;;;5049853;28;21153;-55
2022/11/13 11:46:13;;;;;;;19.00;17.60;;;;;;;;;;5050147;28;20594;-55
2022/11/13 11:48:39;;;;;;;20.50;18.80;;;;;;;;;;5046667;28;20624;-55
2022/11/13 11:51:20;;;;;;;19.67;18.13;;;;;;;;;;5030047;28;20709;-55
2022/11/13 11:53:48;;;;;;;19.97;18.07;;;;;;;;;;5029766;28;20735;-56
2022/11/13 11:56:20;;;;;;;21.80;19.90;;;;;;;;;;5030042;28;20643;-55
2022/11/13 11:59:02;;;;;;;22.10;20.17;;;;;;;;;;5030001;28;20629;-55
2022/11/13 12:01:27;;;;;;;22.27;20.47;;;;;;;;;;5031162;28;20611;-56
2022/11/13 12:04:01;;;;;;;21.65;19.75;;;;;;;;;;5030036;28;20614;-55
2022/11/13 12:06:39;;;;;;;22.90;21.00;;;;;;;;;;5032278;28;20707;-55
2022/11/13 12:09:23;;;;;;;23.33;21.07;;;;;;;;;;5034161;28;20566;-55
2022/11/13 12:11:57;;;;;;;21.67;19.97;;;;;;;;;;5038020;28;20712;-56
2022/11/13 12:14:25;;;;;;;24.03;21.63;;;;;;;;;;5034345;28;21037;-56
2022/11/13 12:16:53;;;;;;;21.20;19.50;;;;;;;;;;5036514;28;20705;-55
2022/11/13 12:19:32;;;;;;;21.13;19.33;;;;;;;;;;5039579;28;20655;-55
2022/11/13 12:22:13;;;;;;;22.27;20.37;;;;;;;;;;5038100;28;20628;-54
2022/11/13 12:24:59;;;;;;;22.30;20.50;;;;;;;;;;5052268;28;20622;-56
2022/11/13 12:27:31;;;;;;;20.70;19.00;;;;;;;;;;5056246;28;20785;-56
2022/11/13 12:29:56;;;;;;;22.60;20.60;;;;;;;;;;5043869;28;20629;-55
2022/11/13 12:32:48;;;;;;;22.77;20.95;;;;;;;;;;5034721;28;20602;-56
2022/11/13 12:35:18;;;;;;;23.67;21.63;;;;;;;;;;5040374;28;20598;-55
2022/11/13 12:37:50;;;;;;;23.10;21.30;;;;;;;;;;5040704;28;20635;-55
2022/11/13 12:40:21;;;;;;;23.33;21.33;;;;;;;;;;5036879;28;20605;-55
2022/11/13 12:42:48;;;;;;;22.23;20.33;;;;;;;;;;5048068;28;20617;-55
2022/11/13 12:45:32;;;;;;;22.73;20.90;;;;;;;;;;5040706;28;20614;-57
2022/11/13 12:48:06;;;;;;;23.47;21.40;;;;;;;;;;5037698;28;20623;-55
2022/11/13 12:50:31;;;;;;;22.13;20.17;;;;;;;;;;5035469;28;20638;-55
2022/11/13 12:52:58;;;;;;;23.50;21.53;;;;;;;;;;5040419;28;21282;-55
2022/11/13 12:55:25;;;;;;;21.67;19.77;;;;;;;;;;5039182;28;20184;-56
2022/11/13 12:57:50;;;;;;;22.43;20.53;;;;;;;;;;5032984;28;20649;-54
2022/11/13 13:00:26;;;;;;;21.60;19.83;;;;;;;;;;5039954;28;20615;-55
2022/11/13 13:02:55;;;;;;;21.33;19.43;;;;;;;;;;5040097;28;20259;-55
2022/11/13 13:05:50;;;;;;;22.03;20.03;;;;;;;;;;5032511;28;20651;-55
2022/11/13 13:08:30;;;;;;;23.87;21.90;;;;;;;;;;5027142;28;21025;-56
2022/11/13 13:11:11;;;;;;;22.50;20.60;;;;;;;;;;5034848;28;20680;-55
2022/11/13 13:13:36;;;;;;;22.23;20.23;;;;;;;;;;5044935;28;20626;-55
2022/11/13 13:16:02;;;;;;;23.58;21.58;;;;;;;;;;5050707;28;20679;-54
2022/11/13 13:18:31;;;;;;;23.50;21.40;;;;;;;;;;5051072;28;20298;-55
2022/11/13 13:21:05;;;;;;;25.27;23.13;;;;;;;;;;5052092;28;20676;-55
2022/11/13 13:23:32;;;;;;;24.03;21.83;;;;;;;;;;5040920;28;20645;-54
2022/11/13 13:26:02;;;;;;;24.00;21.83;;;;;;;;;;5049603;28;20606;-54
2022/11/13 13:28:27;;;;;;;22.90;21.10;;;;;;;;;;5046622;28;20608;-55
2022/11/13 13:30:52;;;;;;;23.40;21.40;;;;;;;;;;5052158;28;20920;-55
2022/11/13 13:33:27;;;;;;;22.48;20.60;;;;;;;;;;5034624;28;20265;-55
2022/11/13 13:36:08;;;;;;;24.60;22.60;;;;;;;;;;5032351;28;20735;-54
2022/11/13 13:38:40;;;;;;;24.30;22.20;;;;;;;;;;5051679;28;21237;-54
2022/11/13 13:41:05;;;;;;;24.43;22.13;;;;;;;;;;5045915;28;20647;-55
2022/11/13 13:43:33;;;;;;;24.70;22.63;;;;;;;;;;5054033;28;21057;-54
2022/11/13 13:46:04;;;;;;;26.07;23.80;;;;;;;;;;5035277;28;20590;-54
2022/11/13 13:48:29;;;;;;;25.03;22.73;;;;;;;;;;5046100;28;20697;-54
2022/11/13 13:50:55;;;;;;;24.70;22.70;;;;;;;;;;5052182;28;20695;-55
2022/11/13 13:53:25;;;;;;;24.50;22.40;;;;;;;;;;5041562;28;20623;-55
2022/11/13 13:55:52;;;;;;;23.33;21.23;;;;;;;;;;5036918;28;20242;-56
2022/11/13 13:58:21;;;;;;;25.80;23.60;;;;;;;;;;5031748;28;20638;-56
2022/11/13 14:00:54;;;;;;;26.30;24.00;;;;;;;;;;5042563;28;20614;-56
2022/11/13 14:03:21;;;;;;;26.57;23.93;;;;;;;;;;5050163;28;21198;-57
2022/11/13 14:05:46;;;;;;;25.93;23.73;;;;;;;;;;5045628;28;21179;-56
2022/11/13 14:08:25;;;;;;;26.27;23.90;;;;;;;;;;5040747;28;20608;-56
2022/11/13 14:10:50;;;;;;;29.40;26.70;;;;;;;;;;5048574;28;20211;-56
2022/11/13 14:13:26;;;;;;;27.57;25.27;;;;;;;;;;5045340;28;20669;-56
2022/11/13 14:16:03;;;;;;;28.00;25.50;;;;;;;;;;5051727;28;20180;-56
2022/11/13 14:18:28;;;;;;;28.40;26.10;;;;;;;;;;5032986;28;20653;-56
2022/11/13 14:20:54;;;;;;;28.97;26.27;;;;;;;;;;5050919;28;21004;-56